Flight Track Log - Related Links

Times and Time Zones

All times are in EDT time to prevent confusion due to time zone crossing. See the SWA2014 flight status page for this flight to view local times or setup timezone preferences in your user account.

Time Position Orientation Groundspeed Altitude Reporting Facility
EDT Latitude Longitude Course Direction KTS MPH feet Rate Location/Type
Sat 08:14:12 PM 41.7092 -87.7750 173° South 222 255 5,600  Level Chicago Center
Sat 08:15:13 PM 41.6308 -87.7603 172° South 257 296 8,600 3,098 Climbing Chicago Center
Sat 08:16:14 PM 41.5433 -87.7450 173° South 308 354 11,900 2,361 Climbing Chicago Center
Sat 08:17:15 PM 41.4406 -87.7300 174° South 374 430 13,400 2,780 Climbing Chicago Center
Sat 08:18:00 PM 41.5764 -87.6308 157° South  Level Estimated
Sat 08:18:17 PM 41.2997 -87.7253 179° South 416 479 17,600  Level Chicago Center
Sat 08:19:18 PM 41.1775 -87.7256 180° South 430 495 20,300 2,656 Climbing Chicago Center
Sat 08:20:19 PM 41.0467 -87.7058 174° South 465 535 23,000 2,459 Climbing Chicago Center
Sat 08:21:20 PM 40.9131 -87.6872 174° South 477 549 25,300 2,311 Climbing Chicago Center
Sat 08:22:21 PM 40.7764 -87.6669 174° South 490 564 27,700 2,390 Climbing Chicago Center
Sat 08:23:23 PM 40.6394 -87.6508 175° South 493 567 30,200 2,634 Climbing Chicago Center
Sat 08:24:24 PM 40.5083 -87.6200 170° South 481 554 33,100 2,557 Climbing Chicago Center
Sat 08:25:25 PM 40.3858 -87.5464 155° Southeast 483 556 35,400 1,967 Climbing Chicago Center
Sat 08:26:26 PM 40.2639 -87.4756 156° South 479 551 37,100 1,672 Climbing Chicago Center
Sat 08:27:27 PM 40.1453 -87.4075 156° South 468 539 38,800 1,604 Climbing Chicago Center
Sat 08:28:07 PM 40.0586 -87.3581 156° South 465 535 39,800 1,069 Climbing Indianapolis Center
Sat 08:29:08 PM 39.9408 -87.2911 156° South 460 529 40,600 590 Climbing Indianapolis Center
Sat 08:30:09 PM 39.8197 -87.2214 156° South 469 540 41,000 197 Climbing Indianapolis Center
Sat 08:31:10 PM 39.6956 -87.1539 157° South 477 549 41,000  Level Indianapolis Center
Sat 08:32:11 PM 39.5706 -87.0944 160° South 477 549 41,000  Level Indianapolis Center
Sat 08:33:12 PM 39.4450 -87.0336 159° South 479 551 41,000  Level Indianapolis Center
Sat 08:34:13 PM 39.3192 -86.9722 159° South 481 554 41,000  Level Indianapolis Center
Sat 08:35:14 PM 39.1933 -86.9128 160° South 479 551 41,000  Level Indianapolis Center
Sat 08:36:15 PM 39.0697 -86.8522 159° South 473 544 41,000  Level Indianapolis Center
Sat 08:37:16 PM 38.9483 -86.7947 160° South 464 534 41,000  Level Indianapolis Center
Sat 08:38:17 PM 38.8256 -86.7364 160° South 465 535 41,000  Level Indianapolis Center
Sat 08:39:18 PM 38.7028 -86.6775 159° South 465 535 41,000  Level Indianapolis Center
Sat 08:40:18 PM 38.5789 -86.6189 160° South 467 537 41,000  Level Indianapolis Center
Sat 08:41:19 PM 38.4553 -86.5603 160° South 468 539 41,000  Level Indianapolis Center
Sat 08:42:20 PM 38.3317 -86.5017 160° South 467 537 41,000  Level Indianapolis Center
Sat 08:43:21 PM 38.2100 -86.4453 160° South 460 529 41,000  Level Indianapolis Center
Sat 08:44:22 PM 38.0647 -86.3781 160° South 460 529 41,000  Level Indianapolis Center
Sat 08:45:23 PM 37.9442 -86.3219 160° South 456 525 41,000  Level Indianapolis Center
Sat 08:46:24 PM 37.8242 -86.2661 160° South 457 526 41,000  Level Indianapolis Center
Sat 08:47:25 PM 37.7103 -86.2150 160° South 451 519 41,000  Level Indianapolis Center
Sat 08:48:26 PM 37.5850 -86.1564 160° South 460 529 41,000  Level Indianapolis Center
Sat 08:48:44 PM 37.5456 -86.1381 160° South 456 525 41,000  Level Memphis Center
Sat 08:49:27 PM 37.4686 -86.1053 161° South 453 521 41,000  Level Indianapolis Center
Sat 08:50:28 PM 37.3483 -86.0478 159° South 454 522 41,000  Level Indianapolis Center
Sat 08:51:29 PM 37.2272 -85.9942 161° South 456 525 41,000  Level Indianapolis Center
Sat 08:52:29 PM 37.1069 -85.9378 159° South 455 524 41,000  Level Indianapolis Center
Sat 08:52:44 PM 37.0819 -85.9261 160° South 456 525 41,000  Level Memphis Center
Sat 08:53:44 PM 36.9633 -85.8731 160° South 456 525 41,000  Level Memphis Center
Sat 08:54:44 PM 36.8425 -85.8200 161° South 456 525 41,000  Level Memphis Center
Sat 08:55:44 PM 36.7239 -85.7647 160° South 456 525 41,000  Level Memphis Center
Sat 08:56:44 PM 36.6011 -85.7150 162° South 456 525 41,000  Level Memphis Center
Sat 08:57:44 PM 36.4803 -85.6600 160° South 456 525 41,000  Level Memphis Center
Sat 08:59:36 PM 36.2469 -85.5542 160° South 459 528 41,000  Level Indianapolis Center
Sat 09:00:36 PM 36.1275 -85.5006 160° South 458 527 41,000  Level Indianapolis Center
Sat 09:00:51 PM 36.0956 -85.4906 166° South 463 533 41,000  Level Atlanta Center
Sat 09:01:51 PM 35.9772 -85.4372 160° South 463 533 41,000  Level Atlanta Center
Sat 09:02:51 PM 35.8694 -85.3917 161° South 463 533 41,000  Level Atlanta Center
Sat 09:03:51 PM 35.7511 -85.3386 160° South 463 533 41,000  Level Atlanta Center
Sat 09:04:51 PM 35.6306 -85.2856 160° South 463 533 41,000  Level Atlanta Center
Sat 09:05:51 PM 35.5122 -85.2353 161° South 463 533 41,000  Level Atlanta Center
Sat 09:06:51 PM 35.3939 -85.1828 160° South 458 527 41,000  Level Atlanta Center
Sat 09:07:51 PM 35.2711 -85.1325 162° South 458 527 41,000  Level Atlanta Center
Sat 09:08:51 PM 35.1528 -85.0803 160° South 458 527 41,000  Level Atlanta Center
Sat 09:09:51 PM 35.0342 -85.0281 160° South 458 527 41,000  Level Atlanta Center
Sat 09:10:51 PM 34.9114 -84.9758 161° South 463 533 41,000  Level Atlanta Center
Sat 09:11:51 PM 34.7886 -84.9239 161° South 463 533 41,000  Level Atlanta Center
Sat 09:12:51 PM 34.6681 -84.8722 161° South 463 533 41,000  Level Atlanta Center
Sat 09:13:51 PM 34.5536 -84.8206 160° South 449 517 41,000  Level Atlanta Center
Sat 09:14:51 PM 34.4328 -84.7717 162° South 449 517 41,000  Level Atlanta Center
Sat 09:15:51 PM 34.3119 -84.7228 162° South 449 517 41,000  Level Atlanta Center
Sat 09:16:51 PM 34.1831 -84.6692 161° South 449 517 41,000  Level Atlanta Center
Sat 09:17:51 PM 34.0706 -84.6206 160° South 454 522 41,000  Level Atlanta Center
Sat 09:18:51 PM 33.9517 -84.5722 161° South 459 528 41,000  Level Atlanta Center
Sat 09:19:51 PM 33.8183 -84.5164 161° South 459 528 41,000  Level Atlanta Center
Sat 09:20:51 PM 33.6975 -84.4658 161° South 459 528 41,000  Level Atlanta Center
Sat 09:21:51 PM 33.5892 -84.4228 162° South 459 528 41,000  Level Atlanta Center
Sat 09:22:51 PM 33.4722 -84.3725 160° South 459 528 41,000  Level Atlanta Center
Sat 09:23:51 PM 33.3514 -84.3222 161° South 453 521 41,000  Level Atlanta Center
Sat 09:24:51 PM 33.2181 -84.2697 162° South 453 521 41,000  Level Atlanta Center
Sat 09:25:51 PM 33.0992 -84.2197 161° South 458 527 41,000  Level Atlanta Center
Sat 09:26:51 PM 32.9781 -84.1675 160° South 463 533 41,000  Level Atlanta Center
Sat 09:27:51 PM 32.8569 -84.1181 161° South 463 533 41,000  Level Atlanta Center
Sat 09:28:51 PM 32.7358 -84.0658 160° South 463 533 41,000  Level Atlanta Center
Sat 09:29:51 PM 32.6150 -84.0167 161° South 463 533 41,000  Level Atlanta Center
Sat 09:30:51 PM 32.4917 -83.9675 161° South 463 533 41,000  Level Atlanta Center
Sat 09:31:51 PM 32.3664 -83.9158 161° South 463 533 41,000  Level Atlanta Center
Sat 09:32:51 PM 32.2433 -83.8644 161° South 463 533 41,000  Level Atlanta Center
Sat 09:34:28 PM 32.0486 -83.7700 158° South 468 539 41,000  Level Jacksonville Center
Sat 09:35:27 PM 31.9281 -83.6881 150° Southeast 480 552 41,000  Level Jacksonville Center
Sat 09:36:27 PM 31.8242 -83.6189 150° Southeast 488 562 41,000  Level Jacksonville Center
Sat 09:37:27 PM 31.6847 -83.5297 151° Southeast 505 581 41,000  Level Jacksonville Center
Sat 09:38:27 PM 31.5764 -83.4633 152° Southeast 499 574 41,000  Level Jacksonville Center
Sat 09:39:27 PM 31.4578 -83.3894 152° Southeast 494 568 41,000 -850 Level Jacksonville Center
Sat 09:40:27 PM 31.3369 -83.3108 151° Southeast 494 568 39,300 -2,000 Descending Jacksonville Center
Sat 09:41:27 PM 31.2139 -83.2350 152° Southeast 494 568 37,000 -2,350 Descending Jacksonville Center
Sat 09:42:27 PM 31.0953 -83.1594 151° Southeast 494 568 34,600 -2,350 Descending Jacksonville Center
Sat 09:43:27 PM 30.9764 -83.0839 151° Southeast 494 568 32,300 -2,300 Descending Jacksonville Center
Sat 09:44:27 PM 30.8594 -83.0086 151° Southeast 489 563 30,000 -2,400 Descending Jacksonville Center
Sat 09:45:27 PM 30.7383 -82.9336 152° Southeast 489 563 27,500 -1,500 Descending Jacksonville Center
Sat 09:46:27 PM 30.6236 -82.8611 151° Southeast 483 556 27,000 -250 Descending Jacksonville Center
Sat 09:47:27 PM 30.5067 -82.7817 150° Southeast 483 556 27,000  Level Jacksonville Center
Sat 09:48:27 PM 30.3853 -82.7094 153° Southeast 483 556 27,000  Level Jacksonville Center
Sat 09:49:27 PM 30.2664 -82.6353 152° Southeast 483 556 27,000 -397 Level Jacksonville Center
Sat 09:50:28 PM 30.1450 -82.5636 153° Southeast 483 556 26,200 -900 Descending Jacksonville Center
Sat 09:51:27 PM 30.0236 -82.4872 151° Southeast 489 563 25,200 -605 Descending Jacksonville Center
Sat 09:52:27 PM 29.8981 -82.4206 155° Southeast 489 563 25,000 -650 Descending Jacksonville Center
Sat 09:53:27 PM 29.7644 -82.3567 157° South 484 557 23,900 -1,050 Descending Jacksonville Center
Sat 09:54:27 PM 29.6408 -82.2953 157° South 478 550 22,900 -1,000 Descending Jacksonville Center
Sat 09:55:27 PM 29.5236 -82.2386 157° South 473 544 21,900 -1,050 Descending Jacksonville Center
Sat 09:56:27 PM 29.4044 -82.1822 158° South 468 539 20,800 -1,050 Descending Jacksonville Center
Sat 09:57:27 PM 29.2892 -82.1283 158° South 457 526 19,800 -1,250 Descending Jacksonville Center
Sat 09:58:27 PM 29.1783 -82.0744 157° South 452 520 18,300 -2,300 Descending Jacksonville Center
Sat 09:59:27 PM 29.0694 -82.0231 158° South 436 502 15,200 -3,100 Descending Jacksonville Center
Sat 10:00:27 PM 28.9647 -81.9694 156° South 426 490 12,100 -2,100 Descending Jacksonville Center
Sat 10:01:27 PM 28.8808 -81.9250 155° Southeast 405 466 11,000 -900 Descending Jacksonville Center
Sat 10:02:27 PM 28.8175 -81.8381 130° Southeast 366 421 10,300 -723 Descending Jacksonville Center
Sat 10:02:50 PM 28.7833 -81.8000 136° Southeast 334 384 10,000 -1,091 Descending Orlando TRACON
Sat 10:03:44 PM 28.7167 -81.7500 147° Southeast 305 351 8,900 -1,474 Descending Orlando TRACON
Sat 10:04:44 PM 28.6500 -81.7000 147° Southeast 299 344 7,200 -1,450 Descending Orlando TRACON
Sat 10:05:44 PM 28.5833 -81.6333 139° Southeast 288 331 6,000 -650 Descending Orlando TRACON
Sat 10:06:44 PM 28.5333 -81.5833 139° Southeast 278 320 5,900 -50 Descending Orlando TRACON
Sat 10:07:44 PM 28.4667 -81.5333 147° Southeast 280 322 5,900 -474 Level Orlando TRACON
Sat 10:08:38 PM 28.4167 -81.4833 139° Southeast 284 327 5,000 -556 Descending Orlando TRACON
Sat 10:09:32 PM 28.3500 -81.4333 147° Southeast 270 311 4,900 -381 Descending Orlando TRACON
Sat 10:10:44 PM 28.2833 -81.4167 168° South 219 252 4,200 -952 Descending Orlando TRACON
Sat 10:11:38 PM 28.2667 -81.3500 106° East 240 276 2,900 -1,421 Descending Orlando TRACON
Sat 10:12:38 PM 28.3000 -81.3000 53° Northeast 210 242 1,500 -864 Descending Orlando TRACON
Sat 10:13:50 PM 28.3500 -81.3000 360° North 158 182 1,000 -478 Descending Orlando TRACON
Sat 10:14:56 PM 28.4000 -81.3000 360° North 124 143 400 -545 Descending Orlando TRACON
Sat 10:16:00 PM 28.4167 -81.3000 24° Northeast  Level FlightAware Approximate
Sat 10:23:00 PM 28.4294 -81.3090 24° Northeast  Level Estimated
Sat 10:24:00 PM 28.4294 -81.3090 24° Northeast  Level Estimated
Sat 10:25:00 PM 28.4294 -81.3090 24° Northeast  Level Estimated
Sat 10:26:00 PM 28.4294 -81.3090 24° Northeast  Level Estimated

Login

Don't have an account? Register now (free) for customized features, flight alerts, and more!